sensor_id;sensor_type;location;lat;lon;timestamp;P1;durP1;ratioP1;P2;durP2;ratioP2
33279;SDS011;20403;43.114;12.434;2023-03-24T00:02:03;14.25;;;7.25;;
33279;SDS011;20403;43.114;12.434;2023-03-24T00:04:29;13.60;;;7.38;;
33279;SDS011;20403;43.114;12.434;2023-03-24T00:06:54;14.10;;;7.00;;
33279;SDS011;20403;43.114;12.434;2023-03-24T00:09:20;12.32;;;6.70;;
33279;SDS011;20403;43.114;12.434;2023-03-24T00:11:45;12.13;;;7.10;;
33279;SDS011;20403;43.114;12.434;2023-03-24T00:14:11;14.63;;;7.05;;
33279;SDS011;20403;43.114;12.434;2023-03-24T00:16:40;12.25;;;6.38;;
33279;SDS011;20403;43.114;12.434;2023-03-24T00:19:09;12.70;;;5.95;;
33279;SDS011;20403;43.114;12.434;2023-03-24T00:21:37;18.25;;;6.60;;
33279;SDS011;20403;43.114;12.434;2023-03-24T00:24:03;10.82;;;6.68;;
33279;SDS011;20403;43.114;12.434;2023-03-24T00:26:31;12.80;;;6.68;;
33279;SDS011;20403;43.114;12.434;2023-03-24T00:28:58;11.98;;;6.82;;
33279;SDS011;20403;43.114;12.434;2023-03-24T00:31:23;11.68;;;6.07;;
33279;SDS011;20403;43.114;12.434;2023-03-24T00:33:49;11.68;;;6.53;;
33279;SDS011;20403;43.114;12.434;2023-03-24T00:36:15;12.75;;;6.78;;
33279;SDS011;20403;43.114;12.434;2023-03-24T00:38:45;14.57;;;7.00;;
33279;SDS011;20403;43.114;12.434;2023-03-24T00:41:14;12.30;;;6.50;;
33279;SDS011;20403;43.114;12.434;2023-03-24T00:43:44;11.45;;;6.82;;
33279;SDS011;20403;43.114;12.434;2023-03-24T00:46:13;11.50;;;7.82;;
33279;SDS011;20403;43.114;12.434;2023-03-24T00:51:22;17.42;;;7.97;;
33279;SDS011;20403;43.114;12.434;2023-03-24T00:53:48;14.00;;;7.60;;
33279;SDS011;20403;43.114;12.434;2023-03-24T00:56:13;15.90;;;7.82;;
33279;SDS011;20403;43.114;12.434;2023-03-24T00:58:39;11.93;;;7.18;;
33279;SDS011;20403;43.114;12.434;2023-03-24T01:01:05;13.15;;;8.15;;
33279;SDS011;20403;43.114;12.434;2023-03-24T01:03:31;13.27;;;8.38;;
33279;SDS011;20403;43.114;12.434;2023-03-24T01:06:01;15.73;;;8.27;;
33279;SDS011;20403;43.114;12.434;2023-03-24T01:08:27;16.00;;;7.97;;
33279;SDS011;20403;43.114;12.434;2023-03-24T01:10:53;12.68;;;6.85;;
33279;SDS011;20403;43.114;12.434;2023-03-24T01:13:22;13.75;;;8.23;;
33279;SDS011;20403;43.114;12.434;2023-03-24T01:15:50;13.93;;;7.85;;
33279;SDS011;20403;43.114;12.434;2023-03-24T01:18:18;17.60;;;7.63;;
33279;SDS011;20403;43.114;12.434;2023-03-24T01:20:44;11.65;;;7.00;;
33279;SDS011;20403;43.114;12.434;2023-03-24T01:23:13;14.25;;;7.43;;
33279;SDS011;20403;43.114;12.434;2023-03-24T01:25:44;14.80;;;7.47;;
33279;SDS011;20403;43.114;12.434;2023-03-24T01:28:12;11.32;;;7.00;;
33279;SDS011;20403;43.114;12.434;2023-03-24T01:30:39;16.55;;;6.90;;
33279;SDS011;20403;43.114;12.434;2023-03-24T01:33:06;12.50;;;6.60;;
33279;SDS011;20403;43.114;12.434;2023-03-24T01:35:32;9.85;;;7.13;;
33279;SDS011;20403;43.114;12.434;2023-03-24T01:37:57;11.02;;;7.07;;
33279;SDS011;20403;43.114;12.434;2023-03-24T01:40:30;9.55;;;6.40;;
33279;SDS011;20403;43.114;12.434;2023-03-24T01:42:58;11.55;;;7.88;;
33279;SDS011;20403;43.114;12.434;2023-03-24T01:48:02;12.73;;;7.25;;
33279;SDS011;20403;43.114;12.434;2023-03-24T01:50:29;13.10;;;6.75;;
33279;SDS011;20403;43.114;12.434;2023-03-24T01:52:55;10.57;;;6.82;;
33279;SDS011;20403;43.114;12.434;2023-03-24T01:55:21;10.10;;;6.15;;
33279;SDS011;20403;43.114;12.434;2023-03-24T01:57:48;17.25;;;7.43;;
33279;SDS011;20403;43.114;12.434;2023-03-24T02:00:18;12.83;;;7.20;;
33279;SDS011;20403;43.114;12.434;2023-03-24T02:02:48;13.48;;;7.18;;
33279;SDS011;20403;43.114;12.434;2023-03-24T02:05:19;10.63;;;6.72;;
33279;SDS011;20403;43.114;12.434;2023-03-24T02:11:00;12.07;;;7.03;;
33279;SDS011;20403;43.114;12.434;2023-03-24T02:13:26;18.65;;;6.50;;
33279;SDS011;20403;43.114;12.434;2023-03-24T02:27:42;12.70;;;7.30;;
33279;SDS011;20403;43.114;12.434;2023-03-24T02:46:22;11.02;;;7.78;;
33279;SDS011;20403;43.114;12.434;2023-03-24T02:54:02;11.10;;;7.32;;
33279;SDS011;20403;43.114;12.434;2023-03-24T02:59:05;16.45;;;7.40;;
33279;SDS011;20403;43.114;12.434;2023-03-24T03:01:44;13.65;;;8.25;;
33279;SDS011;20403;43.114;12.434;2023-03-24T03:04:23;10.63;;;7.20;;
33279;SDS011;20403;43.114;12.434;2023-03-24T03:06:54;12.15;;;7.57;;
33279;SDS011;20403;43.114;12.434;2023-03-24T03:09:23;13.43;;;7.97;;
33279;SDS011;20403;43.114;12.434;2023-03-24T03:11:52;17.67;;;8.23;;
33279;SDS011;20403;43.114;12.434;2023-03-24T03:14:25;15.50;;;7.97;;
33279;SDS011;20403;43.114;12.434;2023-03-24T03:17:10;13.98;;;8.07;;
33279;SDS011;20403;43.114;12.434;2023-03-24T03:19:45;14.02;;;7.82;;
33279;SDS011;20403;43.114;12.434;2023-03-24T03:22:18;13.05;;;8.10;;
33279;SDS011;20403;43.114;12.434;2023-03-24T03:24:48;21.43;;;8.87;;
33279;SDS011;20403;43.114;12.434;2023-03-24T03:27:28;13.55;;;8.73;;
33279;SDS011;20403;43.114;12.434;2023-03-24T03:30:00;15.88;;;9.20;;
33279;SDS011;20403;43.114;12.434;2023-03-24T03:32:34;14.30;;;8.85;;
33279;SDS011;20403;43.114;12.434;2023-03-24T03:35:05;14.07;;;8.48;;
33279;SDS011;20403;43.114;12.434;2023-03-24T03:37:34;11.95;;;7.82;;
33279;SDS011;20403;43.114;12.434;2023-03-24T03:42:36;13.57;;;7.90;;
33279;SDS011;20403;43.114;12.434;2023-03-24T03:45:03;13.13;;;7.53;;
33279;SDS011;20403;43.114;12.434;2023-03-24T03:47:31;15.98;;;8.15;;
33279;SDS011;20403;43.114;12.434;2023-03-24T03:49:56;14.27;;;9.05;;
33279;SDS011;20403;43.114;12.434;2023-03-24T03:52:22;15.38;;;8.77;;
33279;SDS011;20403;43.114;12.434;2023-03-24T03:54:47;13.68;;;7.78;;
33279;SDS011;20403;43.114;12.434;2023-03-24T03:57:15;11.52;;;8.15;;
33279;SDS011;20403;43.114;12.434;2023-03-24T03:59:43;13.50;;;7.88;;
33279;SDS011;20403;43.114;12.434;2023-03-24T04:04:56;12.55;;;7.28;;
33279;SDS011;20403;43.114;12.434;2023-03-24T04:07:42;13.90;;;7.35;;
33279;SDS011;20403;43.114;12.434;2023-03-24T04:26:26;9.88;;;7.07;;
33279;SDS011;20403;43.114;12.434;2023-03-24T04:34:27;11.02;;;6.95;;
33279;SDS011;20403;43.114;12.434;2023-03-24T04:37:04;11.80;;;7.57;;
33279;SDS011;20403;43.114;12.434;2023-03-24T04:39:37;12.50;;;7.43;;
33279;SDS011;20403;43.114;12.434;2023-03-24T04:42:07;11.65;;;7.53;;
33279;SDS011;20403;43.114;12.434;2023-03-24T04:44:37;9.63;;;6.57;;
33279;SDS011;20403;43.114;12.434;2023-03-24T04:47:05;17.52;;;7.45;;
33279;SDS011;20403;43.114;12.434;2023-03-24T04:49:35;9.60;;;7.13;;
33279;SDS011;20403;43.114;12.434;2023-03-24T04:52:02;18.10;;;7.93;;
33279;SDS011;20403;43.114;12.434;2023-03-24T04:54:27;16.60;;;8.48;;
33279;SDS011;20403;43.114;12.434;2023-03-24T04:56:53;15.65;;;7.95;;
33279;SDS011;20403;43.114;12.434;2023-03-24T04:59:22;16.48;;;8.00;;
33279;SDS011;20403;43.114;12.434;2023-03-24T05:01:47;10.30;;;7.10;;
33279;SDS011;20403;43.114;12.434;2023-03-24T05:04:16;15.70;;;7.88;;
33279;SDS011;20403;43.114;12.434;2023-03-24T05:06:43;13.98;;;7.70;;
33279;SDS011;20403;43.114;12.434;2023-03-24T05:09:10;12.98;;;8.00;;
33279;SDS011;20403;43.114;12.434;2023-03-24T05:11:37;11.27;;;7.15;;
33279;SDS011;20403;43.114;12.434;2023-03-24T05:14:02;11.63;;;7.65;;
33279;SDS011;20403;43.114;12.434;2023-03-24T05:16:27;14.45;;;7.97;;
33279;SDS011;20403;43.114;12.434;2023-03-24T05:18:53;16.35;;;8.40;;
33279;SDS011;20403;43.114;12.434;2023-03-24T05:21:18;13.25;;;7.85;;
33279;SDS011;20403;43.114;12.434;2023-03-24T05:23:44;16.30;;;8.02;;
33279;SDS011;20403;43.114;12.434;2023-03-24T05:26:10;13.00;;;8.10;;
33279;SDS011;20403;43.114;12.434;2023-03-24T05:28:35;14.43;;;8.68;;
33279;SDS011;20403;43.114;12.434;2023-03-24T05:31:01;13.88;;;8.60;;
33279;SDS011;20403;43.114;12.434;2023-03-24T05:33:26;12.23;;;8.32;;
33279;SDS011;20403;43.114;12.434;2023-03-24T05:35:52;15.57;;;8.32;;
33279;SDS011;20403;43.114;12.434;2023-03-24T05:38:17;13.05;;;8.18;;
33279;SDS011;20403;43.114;12.434;2023-03-24T05:40:43;13.35;;;9.10;;
33279;SDS011;20403;43.114;12.434;2023-03-24T05:43:08;15.60;;;8.15;;
33279;SDS011;20403;43.114;12.434;2023-03-24T05:45:36;15.68;;;8.55;;
33279;SDS011;20403;43.114;12.434;2023-03-24T05:48:02;15.07;;;8.90;;
33279;SDS011;20403;43.114;12.434;2023-03-24T05:50:27;12.93;;;8.13;;
33279;SDS011;20403;43.114;12.434;2023-03-24T05:52:53;14.18;;;9.00;;
33279;SDS011;20403;43.114;12.434;2023-03-24T05:55:19;16.85;;;8.70;;
33279;SDS011;20403;43.114;12.434;2023-03-24T05:57:46;19.48;;;9.20;;
33279;SDS011;20403;43.114;12.434;2023-03-24T06:00:11;18.00;;;9.48;;
33279;SDS011;20403;43.114;12.434;2023-03-24T06:02:44;13.75;;;9.05;;
33279;SDS011;20403;43.114;12.434;2023-03-24T06:05:10;15.05;;;8.43;;
33279;SDS011;20403;43.114;12.434;2023-03-24T06:07:37;15.05;;;9.15;;
33279;SDS011;20403;43.114;12.434;2023-03-24T06:10:04;14.27;;;9.50;;
33279;SDS011;20403;43.114;12.434;2023-03-24T06:12:31;14.25;;;9.15;;
33279;SDS011;20403;43.114;12.434;2023-03-24T06:14:58;28.75;;;10.18;;
33279;SDS011;20403;43.114;12.434;2023-03-24T06:17:25;29.25;;;9.80;;
33279;SDS011;20403;43.114;12.434;2023-03-24T06:19:52;17.55;;;8.90;;
33279;SDS011;20403;43.114;12.434;2023-03-24T06:22:18;13.95;;;8.55;;
33279;SDS011;20403;43.114;12.434;2023-03-24T06:24:45;19.60;;;8.52;;
33279;SDS011;20403;43.114;12.434;2023-03-24T06:27:14;14.45;;;7.60;;
33279;SDS011;20403;43.114;12.434;2023-03-24T06:29:40;17.30;;;8.15;;
33279;SDS011;20403;43.114;12.434;2023-03-24T06:32:09;14.32;;;7.95;;
33279;SDS011;20403;43.114;12.434;2023-03-24T06:34:35;31.00;;;9.23;;
33279;SDS011;20403;43.114;12.434;2023-03-24T06:37:01;13.32;;;7.47;;
33279;SDS011;20403;43.114;12.434;2023-03-24T06:39:26;14.60;;;8.05;;
33279;SDS011;20403;43.114;12.434;2023-03-24T06:41:52;14.82;;;8.07;;
33279;SDS011;20403;43.114;12.434;2023-03-24T06:44:17;15.32;;;8.25;;
33279;SDS011;20403;43.114;12.434;2023-03-24T06:46:42;15.25;;;8.75;;
33279;SDS011;20403;43.114;12.434;2023-03-24T06:49:10;14.23;;;8.13;;
33279;SDS011;20403;43.114;12.434;2023-03-24T06:51:35;18.75;;;8.07;;
33279;SDS011;20403;43.114;12.434;2023-03-24T06:54:01;16.95;;;8.57;;
33279;SDS011;20403;43.114;12.434;2023-03-24T06:56:27;17.10;;;9.02;;
33279;SDS011;20403;43.114;12.434;2023-03-24T06:58:52;26.73;;;10.23;;
33279;SDS011;20403;43.114;12.434;2023-03-24T07:01:18;17.13;;;9.35;;
33279;SDS011;20403;43.114;12.434;2023-03-24T07:03:44;16.85;;;8.68;;
33279;SDS011;20403;43.114;12.434;2023-03-24T07:06:09;19.05;;;9.40;;
33279;SDS011;20403;43.114;12.434;2023-03-24T07:08:35;19.83;;;9.45;;
33279;SDS011;20403;43.114;12.434;2023-03-24T07:11:01;16.20;;;9.20;;
33279;SDS011;20403;43.114;12.434;2023-03-24T07:13:27;17.75;;;9.57;;
33279;SDS011;20403;43.114;12.434;2023-03-24T07:15:53;26.13;;;9.30;;
33279;SDS011;20403;43.114;12.434;2023-03-24T07:18:18;19.85;;;9.52;;
33279;SDS011;20403;43.114;12.434;2023-03-24T07:20:44;22.52;;;9.85;;
33279;SDS011;20403;43.114;12.434;2023-03-24T07:23:10;19.52;;;9.45;;
33279;SDS011;20403;43.114;12.434;2023-03-24T07:25:38;20.23;;;9.30;;
33279;SDS011;20403;43.114;12.434;2023-03-24T07:28:04;20.08;;;9.48;;
33279;SDS011;20403;43.114;12.434;2023-03-24T07:30:30;11.65;;;9.00;;
33279;SDS011;20403;43.114;12.434;2023-03-24T07:32:56;15.25;;;10.38;;
33279;SDS011;20403;43.114;12.434;2023-03-24T07:35:21;16.85;;;9.93;;
33279;SDS011;20403;43.114;12.434;2023-03-24T07:37:47;15.88;;;9.27;;
33279;SDS011;20403;43.114;12.434;2023-03-24T07:40:13;21.48;;;10.57;;
33279;SDS011;20403;43.114;12.434;2023-03-24T07:42:40;27.23;;;9.98;;
33279;SDS011;20403;43.114;12.434;2023-03-24T07:45:11;16.88;;;10.45;;
33279;SDS011;20403;43.114;12.434;2023-03-24T07:47:37;22.83;;;10.35;;
33279;SDS011;20403;43.114;12.434;2023-03-24T07:50:03;21.52;;;10.30;;
33279;SDS011;20403;43.114;12.434;2023-03-24T07:55:00;18.73;;;10.27;;
33279;SDS011;20403;43.114;12.434;2023-03-24T07:57:26;23.95;;;11.07;;
33279;SDS011;20403;43.114;12.434;2023-03-24T07:59:51;22.80;;;10.82;;
33279;SDS011;20403;43.114;12.434;2023-03-24T08:02:17;26.70;;;11.90;;
33279;SDS011;20403;43.114;12.434;2023-03-24T08:04:43;23.15;;;10.18;;
33279;SDS011;20403;43.114;12.434;2023-03-24T08:07:09;31.10;;;10.60;;
33279;SDS011;20403;43.114;12.434;2023-03-24T08:09:37;19.13;;;9.40;;
33279;SDS011;20403;43.114;12.434;2023-03-24T08:12:03;20.73;;;9.90;;
33279;SDS011;20403;43.114;12.434;2023-03-24T08:14:29;23.05;;;11.23;;
33279;SDS011;20403;43.114;12.434;2023-03-24T08:16:55;22.02;;;10.23;;
33279;SDS011;20403;43.114;12.434;2023-03-24T08:19:21;20.10;;;9.27;;
33279;SDS011;20403;43.114;12.434;2023-03-24T08:21:46;21.02;;;8.18;;
33279;SDS011;20403;43.114;12.434;2023-03-24T08:24:11;18.30;;;8.52;;
33279;SDS011;20403;43.114;12.434;2023-03-24T08:26:37;13.77;;;7.80;;
33279;SDS011;20403;43.114;12.434;2023-03-24T08:29:04;15.52;;;8.20;;
33279;SDS011;20403;43.114;12.434;2023-03-24T08:31:30;16.52;;;8.43;;
33279;SDS011;20403;43.114;12.434;2023-03-24T08:33:57;14.82;;;7.75;;
33279;SDS011;20403;43.114;12.434;2023-03-24T08:36:22;16.95;;;7.68;;
33279;SDS011;20403;43.114;12.434;2023-03-24T08:38:50;15.95;;;7.20;;
33279;SDS011;20403;43.114;12.434;2023-03-24T08:41:18;11.57;;;7.28;;
33279;SDS011;20403;43.114;12.434;2023-03-24T08:43:44;12.73;;;6.85;;
33279;SDS011;20403;43.114;12.434;2023-03-24T08:46:10;16.85;;;7.13;;
33279;SDS011;20403;43.114;12.434;2023-03-24T08:48:36;13.93;;;7.72;;
33279;SDS011;20403;43.114;12.434;2023-03-24T08:51:11;10.45;;;6.53;;
33279;SDS011;20403;43.114;12.434;2023-03-24T08:53:38;12.82;;;7.32;;
33279;SDS011;20403;43.114;12.434;2023-03-24T08:56:04;12.82;;;6.78;;
33279;SDS011;20403;43.114;12.434;2023-03-24T08:58:30;15.05;;;7.10;;
33279;SDS011;20403;43.114;12.434;2023-03-24T09:00:56;12.73;;;6.80;;
33279;SDS011;20403;43.114;12.434;2023-03-24T09:03:22;17.15;;;7.22;;
33279;SDS011;20403;43.114;12.434;2023-03-24T09:05:48;12.38;;;7.25;;
33279;SDS011;20403;43.114;12.434;2023-03-24T09:08:14;11.90;;;6.78;;
33279;SDS011;20403;43.114;12.434;2023-03-24T09:10:42;11.20;;;6.72;;
33279;SDS011;20403;43.114;12.434;2023-03-24T09:13:10;12.43;;;7.03;;
33279;SDS011;20403;43.114;12.434;2023-03-24T09:15:36;11.40;;;6.75;;
33279;SDS011;20403;43.114;12.434;2023-03-24T09:18:01;14.75;;;6.88;;
33279;SDS011;20403;43.114;12.434;2023-03-24T09:20:27;15.15;;;7.05;;
33279;SDS011;20403;43.114;12.434;2023-03-24T09:22:52;9.57;;;6.38;;
33279;SDS011;20403;43.114;12.434;2023-03-24T09:25:19;11.63;;;6.25;;
33279;SDS011;20403;43.114;12.434;2023-03-24T09:27:45;12.25;;;6.47;;
33279;SDS011;20403;43.114;12.434;2023-03-24T09:30:12;10.07;;;6.10;;
33279;SDS011;20403;43.114;12.434;2023-03-24T09:32:39;12.50;;;5.97;;
33279;SDS011;20403;43.114;12.434;2023-03-24T09:35:04;8.88;;;5.10;;
33279;SDS011;20403;43.114;12.434;2023-03-24T09:37:32;10.43;;;5.30;;
33279;SDS011;20403;43.114;12.434;2023-03-24T09:39:58;10.90;;;5.13;;
33279;SDS011;20403;43.114;12.434;2023-03-24T09:42:25;7.28;;;4.80;;
33279;SDS011;20403;43.114;12.434;2023-03-24T09:44:55;6.95;;;3.95;;
33279;SDS011;20403;43.114;12.434;2023-03-24T09:47:30;10.05;;;4.82;;
33279;SDS011;20403;43.114;12.434;2023-03-24T09:50:16;10.75;;;4.72;;
33279;SDS011;20403;43.114;12.434;2023-03-24T09:52:42;8.07;;;3.97;;
33279;SDS011;20403;43.114;12.434;2023-03-24T09:55:12;14.60;;;4.90;;
33279;SDS011;20403;43.114;12.434;2023-03-24T09:57:44;9.95;;;5.70;;
33279;SDS011;20403;43.114;12.434;2023-03-24T10:00:31;9.80;;;4.60;;
33279;SDS011;20403;43.114;12.434;2023-03-24T10:02:58;9.32;;;5.13;;
33279;SDS011;20403;43.114;12.434;2023-03-24T10:08:28;11.02;;;5.13;;
33279;SDS011;20403;43.114;12.434;2023-03-24T10:11:03;8.45;;;3.90;;
33279;SDS011;20403;43.114;12.434;2023-03-24T10:13:50;7.75;;;4.30;;
33279;SDS011;20403;43.114;12.434;2023-03-24T10:22:29;9.90;;;4.28;;
33279;SDS011;20403;43.114;12.434;2023-03-24T10:25:02;6.03;;;3.13;;
33279;SDS011;20403;43.114;12.434;2023-03-24T10:27:46;8.77;;;3.30;;
33279;SDS011;20403;43.114;12.434;2023-03-24T10:30:23;5.88;;;2.80;;
33279;SDS011;20403;43.114;12.434;2023-03-24T10:33:01;7.68;;;3.10;;
33279;SDS011;20403;43.114;12.434;2023-03-24T10:35:28;6.82;;;2.92;;
33279;SDS011;20403;43.114;12.434;2023-03-24T10:38:00;4.10;;;2.80;;
33279;SDS011;20403;43.114;12.434;2023-03-24T10:40:31;5.80;;;3.30;;
33279;SDS011;20403;43.114;12.434;2023-03-24T10:42:57;9.30;;;3.13;;
33279;SDS011;20403;43.114;12.434;2023-03-24T10:45:48;7.65;;;3.63;;
33279;SDS011;20403;43.114;12.434;2023-03-24T10:48:32;7.35;;;3.47;;
33279;SDS011;20403;43.114;12.434;2023-03-24T10:51:03;7.65;;;3.13;;
33279;SDS011;20403;43.114;12.434;2023-03-24T10:53:30;5.80;;;3.22;;
33279;SDS011;20403;43.114;12.434;2023-03-24T10:55:56;6.63;;;2.92;;
33279;SDS011;20403;43.114;12.434;2023-03-24T11:01:01;4.78;;;3.00;;
33279;SDS011;20403;43.114;12.434;2023-03-24T11:03:33;5.47;;;3.20;;
33279;SDS011;20403;43.114;12.434;2023-03-24T11:06:01;5.85;;;3.30;;
33279;SDS011;20403;43.114;12.434;2023-03-24T11:08:33;6.97;;;3.33;;
33279;SDS011;20403;43.114;12.434;2023-03-24T11:11:01;6.28;;;2.70;;
33279;SDS011;20403;43.114;12.434;2023-03-24T11:13:38;11.93;;;3.80;;
33279;SDS011;20403;43.114;12.434;2023-03-24T11:16:07;7.07;;;3.13;;
33279;SDS011;20403;43.114;12.434;2023-03-24T11:18:36;9.05;;;3.95;;
33279;SDS011;20403;43.114;12.434;2023-03-24T11:21:03;4.75;;;3.05;;
33279;SDS011;20403;43.114;12.434;2023-03-24T11:26:05;5.88;;;3.00;;
33279;SDS011;20403;43.114;12.434;2023-03-24T11:28:36;5.18;;;3.03;;
33279;SDS011;20403;43.114;12.434;2023-03-24T11:31:23;10.73;;;2.92;;
33279;SDS011;20403;43.114;12.434;2023-03-24T11:34:13;4.38;;;2.72;;
33279;SDS011;20403;43.114;12.434;2023-03-24T11:39:25;6.20;;;2.78;;
33279;SDS011;20403;43.114;12.434;2023-03-24T11:44:28;5.80;;;2.65;;
33279;SDS011;20403;43.114;12.434;2023-03-24T11:46:59;6.72;;;3.00;;
33279;SDS011;20403;43.114;12.434;2023-03-24T11:49:32;7.45;;;2.75;;
33279;SDS011;20403;43.114;12.434;2023-03-24T11:52:03;5.05;;;2.55;;
33279;SDS011;20403;43.114;12.434;2023-03-24T11:54:35;7.45;;;2.90;;
33279;SDS011;20403;43.114;12.434;2023-03-24T11:57:07;9.55;;;2.53;;
33279;SDS011;20403;43.114;12.434;2023-03-24T12:18:16;5.95;;;2.75;;
33279;SDS011;20403;43.114;12.434;2023-03-24T12:28:51;8.85;;;2.97;;
33279;SDS011;20403;43.114;12.434;2023-03-24T12:39:45;8.70;;;3.05;;
33279;SDS011;20403;43.114;12.434;2023-03-24T12:42:39;8.65;;;2.50;;
33279;SDS011;20403;43.114;12.434;2023-03-24T12:55:53;7.25;;;2.50;;
33279;SDS011;20403;43.114;12.434;2023-03-24T12:58:26;6.07;;;2.60;;
33279;SDS011;20403;43.114;12.434;2023-03-24T13:01:10;4.88;;;2.50;;
33279;SDS011;20403;43.114;12.434;2023-03-24T13:03:45;15.05;;;2.75;;
33279;SDS011;20403;43.114;12.434;2023-03-24T13:06:22;10.50;;;2.60;;
33279;SDS011;20403;43.114;12.434;2023-03-24T13:09:03;6.38;;;2.47;;
33279;SDS011;20403;43.114;12.434;2023-03-24T13:11:45;11.20;;;2.35;;
33279;SDS011;20403;43.114;12.434;2023-03-24T13:14:21;7.45;;;2.90;;
33279;SDS011;20403;43.114;12.434;2023-03-24T13:16:52;5.18;;;2.50;;
33279;SDS011;20403;43.114;12.434;2023-03-24T13:19:21;8.60;;;2.45;;
33279;SDS011;20403;43.114;12.434;2023-03-24T13:21:50;5.85;;;2.67;;
33279;SDS011;20403;43.114;12.434;2023-03-24T13:24:18;13.63;;;2.40;;
33279;SDS011;20403;43.114;12.434;2023-03-24T13:32:48;6.32;;;3.00;;
33279;SDS011;20403;43.114;12.434;2023-03-24T13:35:26;9.50;;;4.03;;
33279;SDS011;20403;43.114;12.434;2023-03-24T13:37:53;7.85;;;3.63;;
33279;SDS011;20403;43.114;12.434;2023-03-24T13:40:31;7.95;;;3.80;;
33279;SDS011;20403;43.114;12.434;2023-03-24T13:43:09;9.00;;;3.75;;
33279;SDS011;20403;43.114;12.434;2023-03-24T13:45:44;10.98;;;3.95;;
33279;SDS011;20403;43.114;12.434;2023-03-24T13:50:40;6.70;;;3.78;;
33279;SDS011;20403;43.114;12.434;2023-03-24T13:53:15;6.28;;;3.15;;
33279;SDS011;20403;43.114;12.434;2023-03-24T13:55:50;4.50;;;2.90;;
33279;SDS011;20403;43.114;12.434;2023-03-24T13:58:21;7.35;;;2.72;;
33279;SDS011;20403;43.114;12.434;2023-03-24T14:03:39;4.10;;;1.90;;
33279;SDS011;20403;43.114;12.434;2023-03-24T14:06:07;4.43;;;2.55;;
33279;SDS011;20403;43.114;12.434;2023-03-24T14:12:18;4.88;;;2.13;;
33279;SDS011;20403;43.114;12.434;2023-03-24T14:14:33;5.80;;;2.70;;
33279;SDS011;20403;43.114;12.434;2023-03-24T14:19:36;5.35;;;2.40;;
33279;SDS011;20403;43.114;12.434;2023-03-24T14:22:20;4.47;;;2.08;;
33279;SDS011;20403;43.114;12.434;2023-03-24T14:24:56;4.55;;;2.30;;
33279;SDS011;20403;43.114;12.434;2023-03-24T14:35:24;6.32;;;2.05;;
33279;SDS011;20403;43.114;12.434;2023-03-24T14:37:51;3.13;;;1.80;;
33279;SDS011;20403;43.114;12.434;2023-03-24T14:40:37;4.55;;;1.67;;
33279;SDS011;20403;43.114;12.434;2023-03-24T14:45:49;4.35;;;1.63;;
33279;SDS011;20403;43.114;12.434;2023-03-24T14:50:54;2.17;;;1.15;;
33279;SDS011;20403;43.114;12.434;2023-03-24T14:55:50;8.00;;;1.70;;
33279;SDS011;20403;43.114;12.434;2023-03-24T15:00:47;5.72;;;1.48;;
33279;SDS011;20403;43.114;12.434;2023-03-24T15:03:18;3.20;;;1.77;;
33279;SDS011;20403;43.114;12.434;2023-03-24T15:05:48;5.93;;;1.80;;
33279;SDS011;20403;43.114;12.434;2023-03-24T15:08:14;7.03;;;1.90;;
33279;SDS011;20403;43.114;12.434;2023-03-24T15:15:59;9.15;;;2.17;;
33279;SDS011;20403;43.114;12.434;2023-03-24T15:18:28;3.13;;;1.50;;
33279;SDS011;20403;43.114;12.434;2023-03-24T15:20:54;4.45;;;1.80;;
33279;SDS011;20403;43.114;12.434;2023-03-24T15:23:24;6.72;;;1.77;;
33279;SDS011;20403;43.114;12.434;2023-03-24T15:25:52;4.05;;;1.80;;
33279;SDS011;20403;43.114;12.434;2023-03-24T15:28:28;3.63;;;1.50;;
33279;SDS011;20403;43.114;12.434;2023-03-24T15:30:55;7.63;;;1.92;;
33279;SDS011;20403;43.114;12.434;2023-03-24T15:33:25;3.90;;;1.70;;
33279;SDS011;20403;43.114;12.434;2023-03-24T15:35:55;4.30;;;1.60;;
33279;SDS011;20403;43.114;12.434;2023-03-24T15:38:26;4.00;;;2.00;;
33279;SDS011;20403;43.114;12.434;2023-03-24T15:41:03;9.50;;;2.00;;
33279;SDS011;20403;43.114;12.434;2023-03-24T15:43:39;4.28;;;1.77;;
33279;SDS011;20403;43.114;12.434;2023-03-24T15:46:16;3.08;;;1.50;;
33279;SDS011;20403;43.114;12.434;2023-03-24T15:48:51;5.10;;;1.80;;
33279;SDS011;20403;43.114;12.434;2023-03-24T15:51:18;5.43;;;1.70;;
33279;SDS011;20403;43.114;12.434;2023-03-24T15:53:45;4.07;;;1.52;;
33279;SDS011;20403;43.114;12.434;2023-03-24T15:56:24;4.82;;;1.70;;
33279;SDS011;20403;43.114;12.434;2023-03-24T16:01:19;3.28;;;1.58;;
33279;SDS011;20403;43.114;12.434;2023-03-24T16:03:51;19.52;;;4.07;;
33279;SDS011;20403;43.114;12.434;2023-03-24T16:06:28;7.00;;;1.58;;
33279;SDS011;20403;43.114;12.434;2023-03-24T16:08:59;4.28;;;1.80;;
33279;SDS011;20403;43.114;12.434;2023-03-24T16:11:28;5.07;;;1.67;;
33279;SDS011;20403;43.114;12.434;2023-03-24T16:13:54;5.95;;;1.45;;
33279;SDS011;20403;43.114;12.434;2023-03-24T16:16:25;3.78;;;1.60;;
33279;SDS011;20403;43.114;12.434;2023-03-24T16:18:52;4.03;;;1.80;;
33279;SDS011;20403;43.114;12.434;2023-03-24T16:21:21;2.33;;;1.77;;
33279;SDS011;20403;43.114;12.434;2023-03-24T16:23:47;9.60;;;1.92;;
33279;SDS011;20403;43.114;12.434;2023-03-24T16:26:15;5.25;;;1.50;;
33279;SDS011;20403;43.114;12.434;2023-03-24T16:28:45;3.90;;;1.45;;
33279;SDS011;20403;43.114;12.434;2023-03-24T16:31:24;5.38;;;1.67;;
33279;SDS011;20403;43.114;12.434;2023-03-24T16:33:57;3.67;;;1.30;;
33279;SDS011;20403;43.114;12.434;2023-03-24T16:36:23;46.78;;;4.72;;
33279;SDS011;20403;43.114;12.434;2023-03-24T16:38:51;7.50;;;1.77;;
33279;SDS011;20403;43.114;12.434;2023-03-24T16:41:17;3.58;;;1.65;;
33279;SDS011;20403;43.114;12.434;2023-03-24T16:43:43;21.90;;;2.53;;
33279;SDS011;20403;43.114;12.434;2023-03-24T16:46:13;4.32;;;1.40;;
33279;SDS011;20403;43.114;12.434;2023-03-24T16:48:39;13.10;;;1.73;;
33279;SDS011;20403;43.114;12.434;2023-03-24T16:51:05;5.38;;;1.38;;
33279;SDS011;20403;43.114;12.434;2023-03-24T16:53:35;4.45;;;1.20;;
33279;SDS011;20403;43.114;12.434;2023-03-24T16:56:00;4.75;;;1.40;;
33279;SDS011;20403;43.114;12.434;2023-03-24T16:58:25;4.53;;;1.90;;
33279;SDS011;20403;43.114;12.434;2023-03-24T17:00:51;7.78;;;1.63;;
33279;SDS011;20403;43.114;12.434;2023-03-24T17:03:17;3.53;;;1.58;;
33279;SDS011;20403;43.114;12.434;2023-03-24T17:05:46;9.32;;;2.20;;
33279;SDS011;20403;43.114;12.434;2023-03-24T17:08:16;5.85;;;2.15;;
33279;SDS011;20403;43.114;12.434;2023-03-24T17:10:43;3.60;;;1.42;;
33279;SDS011;20403;43.114;12.434;2023-03-24T17:13:22;5.43;;;1.65;;
33279;SDS011;20403;43.114;12.434;2023-03-24T17:15:49;7.30;;;1.52;;
33279;SDS011;20403;43.114;12.434;2023-03-24T17:18:15;4.07;;;1.52;;
33279;SDS011;20403;43.114;12.434;2023-03-24T17:20:41;4.40;;;1.80;;
33279;SDS011;20403;43.114;12.434;2023-03-24T17:23:07;3.15;;;1.58;;
33279;SDS011;20403;43.114;12.434;2023-03-24T17:25:34;5.07;;;1.50;;
33279;SDS011;20403;43.114;12.434;2023-03-24T17:28:00;4.60;;;1.90;;
33279;SDS011;20403;43.114;12.434;2023-03-24T17:30:26;8.80;;;1.95;;
33279;SDS011;20403;43.114;12.434;2023-03-24T17:32:53;4.78;;;2.35;;
33279;SDS011;20403;43.114;12.434;2023-03-24T17:35:20;3.70;;;2.05;;
33279;SDS011;20403;43.114;12.434;2023-03-24T17:37:46;6.40;;;2.10;;
33279;SDS011;20403;43.114;12.434;2023-03-24T17:40:13;3.30;;;1.60;;